Airfield :
LOGIN :

Register | Disclaimer

   EN    FR    IT 

 










Legend :    VFR   Marginal VFR   IFR   Intensive IFR   Very Intensive IFR
Visi :
Ceiling :
>= 8 km
>= 3000ft
5 to 8 km
1000 to 3000 ft
1500m to 5 km
500 to 1000 ft
800 to 1500m
200 to 500 ft
< 800m
< 200 ft
Symbols :   Thunderstorms  Fog  Heavy snow  Heavy precipitations  Wind > 20 kt
SIGMETs :     Misc.  Thunderstorms  Icing  Turbulence  Mountain Waves  Volcanic Ashes






- Airport Elevation : 324 ft
- IATA code : KVB


ESGR - Skovde

CURRENT METAR :
  • 221450Z AUTO 12007KT 9999 DZ OVC008/// 06/06 Q1015 REDZ

EXPIRED METARs :
  • 221420Z AUTO 11007KT 080V140 9999 -DZ OVC007/// 06/06 Q1015 RESHUP
  • 221350Z AUTO 11007KT 070V140 8000 UP OVC007/// 06/05 Q1015 RERA REDZ
  • 221320Z AUTO 11009KT 9999 -DZ BKN008/// OVC009/// 06/05 Q1015
  • 221250Z 11008KT 9000 UP OVC008 06/05 Q1015

TAF N/A



MET'MAP, your aeronautical weather chart ! - Copyright ORBIFLY December 2007 - Disclaimer

ORBIFLY MET'MAP TEAM :

Programming & Development : Alexandra Zaïnal
Concept & Development : Baudouin d'Aumeries
Co-Development & Prog : Marc-Olivier Méhu
Technical & hardware support : Manuel Goepfert

Contact : metmap@orbifly.com




SOURCES & CREDITS :

   NOAA